Time;durP1;ratioP1;P1;durP2;ratioP2;P2;SDS_P1;SDS_P2;PMS_P1;PMS_P2;Temp;Humidity;BMP_temperature;BMP_pressure;BME280_temperature;BME280_humidity;BME280_pressure;Samples;Min_cycle;Max_cycle;Signal;HPM_P1;HPM_P2
2024/01/09 00:02:57;;;;;;;150.23;42.43;;;;;;;-10.48;100.00;102910.92;4914703;57;1146799;-78
2024/01/09 00:08:04;;;;;;;168.83;44.37;;;;;;;-10.39;100.00;102915.61;4933307;57;1147271;-77
2024/01/09 00:13:09;;;;;;;127.53;41.00;;;;;;;-10.32;100.00;102908.67;4958415;57;1148182;-78
2024/01/09 00:18:15;;;;;;;120.00;37.23;;;;;;;-10.36;100.00;102911.88;4981928;57;1147228;-78
2024/01/09 00:23:21;;;;;;;224.93;67.70;;;;;;;-10.46;100.00;102911.00;4937386;57;1146976;-77
2024/01/09 00:28:26;;;;;;;207.40;60.93;;;;;;;-10.76;100.00;102913.88;5021221;56;1146905;-77
2024/01/09 00:33:33;;;;;;;184.20;54.20;;;;;;;-10.82;100.00;102912.70;4988451;57;1147437;-78
2024/01/09 00:38:39;;;;;;;165.10;51.17;;;;;;;-10.83;100.00;102913.09;4966318;57;1147235;-78
2024/01/09 00:43:44;;;;;;;155.57;46.57;;;;;;;-10.87;100.00;102912.91;4959697;57;1147112;-78
2024/01/09 00:48:50;;;;;;;170.68;51.58;;;;;;;-10.88;100.00;102909.87;4966926;57;1147182;-78
2024/01/09 00:53:57;;;;;;;94.83;31.03;;;;;;;-10.85;100.00;102922.80;4989153;55;1146934;-77
2024/01/09 00:59:02;;;;;;;94.67;28.17;;;;;;;-10.93;100.00;102921.54;4930965;57;1147087;-78
2024/01/09 01:04:08;;;;;;;115.55;33.83;;;;;;;-10.98;100.00;102951.97;4939535;57;1147935;-78
2024/01/09 01:09:14;;;;;;;140.17;42.33;;;;;;;-11.04;100.00;102942.34;4956161;57;1149325;-78
2024/01/09 01:14:19;;;;;;;130.55;39.65;;;;;;;-10.99;100.00;102955.33;4914028;57;1148987;-77
2024/01/09 01:19:25;;;;;;;151.00;45.03;;;;;;;-10.99;100.00;102962.11;4941867;57;1149363;-77
2024/01/09 01:24:31;;;;;;;144.97;42.97;;;;;;;-10.99;100.00;102967.22;4978048;57;1148926;-78
2024/01/09 01:29:36;;;;;;;129.90;36.93;;;;;;;-11.12;100.00;102970.86;4960207;57;1148788;-78
2024/01/09 01:34:42;;;;;;;105.33;32.67;;;;;;;-11.27;100.00;102970.97;4961467;58;1149324;-78
2024/01/09 01:39:47;;;;;;;92.97;29.80;;;;;;;-11.44;100.00;102966.68;4916172;57;1149279;-78
2024/01/09 01:44:53;;;;;;;99.90;28.53;;;;;;;-11.53;100.00;102972.61;4874902;58;1146978;-78
2024/01/09 01:49:59;;;;;;;90.40;28.97;;;;;;;-11.72;100.00;102968.22;4895756;57;1146867;-77
2024/01/09 01:55:05;;;;;;;89.97;28.65;;;;;;;-11.76;100.00;102968.48;4893456;57;1147313;-77
2024/01/09 02:00:12;;;;;;;95.47;28.30;;;;;;;-11.70;100.00;102967.03;4903952;57;1147167;-78
2024/01/09 02:05:20;;;;;;;117.53;36.57;;;;;;;-11.66;100.00;102964.72;4938909;56;1147224;-78
2024/01/09 02:10:25;;;;;;;230.93;61.00;;;;;;;-11.70;100.00;102959.38;4932897;57;1149279;-78
2024/01/09 02:15:31;;;;;;;181.70;55.43;;;;;;;-11.69;100.00;102954.75;4924425;57;1149083;-78
2024/01/09 02:20:37;;;;;;;126.83;34.37;;;;;;;-11.74;100.00;102954.10;4932250;57;1149045;-78
2024/01/09 02:25:42;;;;;;;127.07;35.93;;;;;;;-11.79;100.00;102953.04;4954509;57;1148922;-78
2024/01/09 02:30:48;;;;;;;134.57;36.98;;;;;;;-11.79;100.00;102944.52;4975550;57;1149705;-78
2024/01/09 02:35:54;;;;;;;130.83;39.10;;;;;;;-11.79;100.00;102947.06;4953519;57;1149495;-78
2024/01/09 02:40:59;;;;;;;184.07;48.97;;;;;;;-11.81;100.00;102946.09;4883420;57;1149031;-78
2024/01/09 02:46:05;;;;;;;199.57;52.33;;;;;;;-11.83;100.00;102945.14;4912788;57;1149226;-78
2024/01/09 02:51:11;;;;;;;177.77;48.17;;;;;;;-11.84;100.00;102950.64;4981224;57;1153926;-78
2024/01/09 02:56:17;;;;;;;133.03;37.88;;;;;;;-11.89;100.00;102939.30;4953737;56;1149062;-78
2024/01/09 03:01:26;;;;;;;134.97;36.23;;;;;;;-11.89;100.00;102944.41;4936887;56;1149404;-78
2024/01/09 03:06:32;;;;;;;103.73;26.43;;;;;;;-12.03;100.00;102938.98;4992624;57;1149481;-77
2024/01/09 03:11:37;;;;;;;99.53;29.47;;;;;;;-12.13;100.00;102935.08;4956307;57;1149481;-77
2024/01/09 03:16:45;;;;;;;110.63;33.33;;;;;;;-12.16;100.00;102935.31;4903437;57;1147407;-78
2024/01/09 03:21:50;;;;;;;124.50;36.07;;;;;;;-12.08;100.00;102937.01;4877283;57;1149085;-78
2024/01/09 03:26:56;;;;;;;157.03;39.90;;;;;;;-12.03;100.00;102952.13;4975661;57;1149152;-78
2024/01/09 03:32:02;;;;;;;172.00;44.53;;;;;;;-11.98;100.00;102950.31;4998504;57;1149312;-78
2024/01/09 03:37:09;;;;;;;196.97;46.47;;;;;;;-11.98;100.00;102950.31;4938281;57;1149306;-78
2024/01/09 03:42:14;;;;;;;174.13;51.83;;;;;;;-11.95;100.00;102953.03;4925176;57;1149278;-77
2024/01/09 03:47:20;;;;;;;145.60;44.00;;;;;;;-12.03;100.00;102951.73;4978216;57;1149373;-77
2024/01/09 03:52:26;;;;;;;172.83;47.33;;;;;;;-12.14;100.00;102944.80;4939565;57;1149316;-78
2024/01/09 03:57:32;;;;;;;219.07;57.60;;;;;;;-12.27;100.00;102953.88;4943667;57;1149206;-78
2024/01/09 04:02:38;;;;;;;192.10;52.83;;;;;;;-12.46;100.00;102944.34;4935692;56;1149249;-78
2024/01/09 04:07:43;;;;;;;189.93;52.00;;;;;;;-12.59;100.00;102937.22;4926623;57;1149175;-78
2024/01/09 04:12:49;;;;;;;148.17;42.00;;;;;;;-12.66;100.00;102935.98;4877085;56;1149138;-77
2024/01/09 04:17:55;;;;;;;133.97;37.57;;;;;;;-12.62;100.00;102940.47;4867494;58;1149205;-78
2024/01/09 04:23:00;;;;;;;129.70;38.87;;;;;;;-12.61;100.00;102940.95;4947469;56;1149380;-70
2024/01/09 04:28:06;;;;;;;136.43;37.33;;;;;;;-12.55;100.00;102928.95;4878400;57;1149541;-72
2024/01/09 04:33:11;;;;;;;127.43;36.17;;;;;;;-12.55;100.00;102930.23;4918116;57;1149281;-74
2024/01/09 04:38:17;;;;;;;132.67;35.80;;;;;;;-12.53;100.00;102933.75;4937886;57;1149007;-72
2024/01/09 04:43:23;;;;;;;174.15;43.55;;;;;;;-12.53;100.00;102928.25;4895722;57;1149661;-71
2024/01/09 04:48:28;;;;;;;140.30;36.57;;;;;;;-12.72;100.00;102925.48;4833339;58;1149191;-71
2024/01/09 04:53:34;;;;;;;136.37;36.70;;;;;;;-12.61;100.00;102920.56;4835930;58;1149025;-72
2024/01/09 04:58:40;;;;;;;129.50;34.83;;;;;;;-12.53;100.00;102917.17;4876005;58;1149167;-71
2024/01/09 05:03:47;;;;;;;77.80;24.10;;;;;;;-12.57;100.00;102913.97;4869514;58;1149267;-71
2024/01/09 05:08:53;;;;;;;58.10;20.33;;;;;;;-12.57;100.00;102913.97;4836069;59;1146939;-71
2024/01/09 05:13:58;;;;;;;61.70;21.37;;;;;;;-12.71;100.00;102907.25;4793434;59;1147145;-71
2024/01/09 05:19:04;;;;;;;83.67;24.60;;;;;;;-12.64;100.00;102908.92;4832236;57;1147175;-72
2024/01/09 05:24:09;;;;;;;101.20;29.77;;;;;;;-12.61;100.00;102904.00;4927464;57;1147200;-71
2024/01/09 05:29:15;;;;;;;231.60;58.10;;;;;;;-12.59;100.00;102902.42;4930379;56;1149179;-71
2024/01/09 05:34:21;;;;;;;147.53;42.65;;;;;;;-12.59;100.00;102911.34;4931096;55;1149257;-71
2024/01/09 05:39:26;;;;;;;108.73;30.57;;;;;;;-12.51;100.00;102911.34;4948239;58;1149059;-71
2024/01/09 05:44:32;;;;;;;97.40;31.67;;;;;;;-12.51;100.00;102910.47;4868438;58;1149307;-72
2024/01/09 05:49:37;;;;;;;110.23;34.37;;;;;;;-12.51;100.00;102911.34;4873177;57;1147133;-71
2024/01/09 05:54:49;;;;;;;126.33;32.77;;;;;;;-12.46;100.00;102915.03;4850877;59;1149735;-71
2024/01/09 05:59:54;;;;;;;152.80;43.27;;;;;;;-12.44;100.00;102921.48;4829269;59;1149147;-71
2024/01/09 06:05:00;;;;;;;180.37;46.57;;;;;;;-12.47;100.00;102932.39;4851085;59;1149304;-71
2024/01/09 06:10:06;;;;;;;135.30;44.50;;;;;;;-12.55;100.00;102935.33;4869424;59;1149211;-72
2024/01/09 06:15:11;;;;;;;139.92;41.30;;;;;;;-12.63;100.00;102935.28;4861497;58;1149092;-70
2024/01/09 06:20:18;;;;;;;142.47;45.37;;;;;;;-12.58;100.00;102933.48;4926986;57;1149132;-71
2024/01/09 06:25:23;;;;;;;186.83;55.40;;;;;;;-12.70;100.00;102953.59;4951857;57;1149445;-70
2024/01/09 06:30:30;;;;;;;213.50;59.50;;;;;;;-12.61;100.00;102950.27;4924949;56;1149065;-71
2024/01/09 06:35:35;;;;;;;439.73;108.97;;;;;;;-12.50;100.00;102950.45;4880906;57;1149434;-71
2024/01/09 06:40:41;;;;;;;364.88;89.75;;;;;;;-12.60;100.00;102940.56;4930024;57;1151518;-72
2024/01/09 06:45:46;;;;;;;283.53;73.00;;;;;;;-12.61;100.00;102946.05;4951225;57;1149217;-71
2024/01/09 06:50:54;;;;;;;248.23;66.50;;;;;;;-12.50;100.00;102960.65;4974314;57;1148874;-74
2024/01/09 06:55:59;;;;;;;263.50;77.33;;;;;;;-12.45;100.00;102970.71;4996541;57;1149362;-73
2024/01/09 07:01:06;;;;;;;271.40;86.17;;;;;;;-12.37;100.00;102979.64;4933755;58;1150126;-74
2024/01/09 07:06:12;;;;;;;288.17;86.03;;;;;;;-12.46;100.00;102980.42;5038712;57;1149254;-76
2024/01/09 07:11:17;;;;;;;363.68;104.85;;;;;;;-12.55;100.00;102982.08;4917021;58;1149132;-74
2024/01/09 07:16:23;;;;;;;853.82;276.42;;;;;;;-12.58;100.00;102983.58;5050872;56;1151004;-77
2024/01/09 07:21:28;;;;;;;647.50;193.17;;;;;;;-12.61;100.00;102989.77;4998304;56;1150917;-76
2024/01/09 07:26:42;;;;;;;405.57;113.80;;;;;;;-12.66;100.00;102997.14;4990700;57;1151494;-76
2024/01/09 07:31:48;;;;;;;496.67;153.53;;;;;;;-12.68;100.00;102988.96;4991534;57;1151530;-72
2024/01/09 07:36:54;;;;;;;586.17;174.43;;;;;;;-12.75;100.00;102980.48;4960020;56;1151102;-75
2024/01/09 07:41:59;;;;;;;433.10;121.62;;;;;;;-12.74;100.00;102985.66;4991610;57;1150927;-73
2024/01/09 07:47:07;;;;;;;656.87;221.32;;;;;;;-12.82;100.00;102984.33;4890828;57;1151112;-76
2024/01/09 07:52:12;;;;;;;403.43;112.53;;;;;;;-12.85;100.00;102995.65;4960488;57;1151212;-76
2024/01/09 07:57:18;;;;;;;402.27;114.60;;;;;;;-12.66;100.00;102990.78;4983766;56;1151401;-76
2024/01/09 08:02:24;;;;;;;438.30;132.80;;;;;;;-12.49;100.00;102994.27;4932666;57;1151433;-76
2024/01/09 08:07:30;;;;;;;350.73;104.57;;;;;;;-12.26;100.00;102996.83;4878653;57;1151470;-74
2024/01/09 08:12:35;;;;;;;303.83;95.90;;;;;;;-12.01;100.00;103001.17;4985261;57;1151046;-73
2024/01/09 08:17:41;;;;;;;291.20;87.90;;;;;;;-11.66;100.00;103002.13;4908247;57;1148992;-75
2024/01/09 08:22:48;;;;;;;558.20;176.90;;;;;;;-11.43;100.00;103002.91;4902279;57;1149345;-75
2024/01/09 08:27:54;;;;;;;765.67;286.70;;;;;;;-11.10;100.00;103011.02;4930632;57;1151967;-73
2024/01/09 08:32:59;;;;;;;427.47;146.90;;;;;;;-10.86;100.00;103018.16;4932015;57;1151304;-72
2024/01/09 08:38:05;;;;;;;206.23;68.13;;;;;;;-10.68;100.00;103008.81;4945609;57;1151587;-77
2024/01/09 08:43:10;;;;;;;502.20;168.67;;;;;;;-10.60;100.00;103016.87;4903456;58;1149893;-73
2024/01/09 08:48:17;;;;;;;414.63;126.70;;;;;;;-10.38;100.00;103011.96;4914815;58;1151287;-73
2024/01/09 08:53:24;;;;;;;256.03;67.17;;;;;;;-10.48;100.00;103017.05;4931560;58;1151669;-75
2024/01/09 08:58:30;;;;;;;165.73;48.03;;;;;;;-10.62;100.00;103027.02;4929844;58;1148943;-76
2024/01/09 09:03:36;;;;;;;258.33;60.80;;;;;;;-10.51;100.00;103027.13;4915702;58;1148957;-73
2024/01/09 09:08:41;;;;;;;385.23;92.70;;;;;;;-10.63;100.00;103024.39;4874058;58;1149538;-75
2024/01/09 09:13:47;;;;;;;448.40;105.87;;;;;;;-10.74;100.00;103027.30;4939393;57;1149413;-75
2024/01/09 09:18:53;;;;;;;222.95;58.65;;;;;;;-10.80;100.00;103023.16;4938555;58;1151415;-74
2024/01/09 09:23:59;;;;;;;209.17;49.97;;;;;;;-10.73;100.00;103027.78;4871400;57;1149253;-74
2024/01/09 09:29:05;;;;;;;135.87;40.63;;;;;;;-10.70;100.00;103025.39;4847936;57;1149452;-74
2024/01/09 09:34:11;;;;;;;82.40;28.83;;;;;;;-10.70;100.00;103024.11;4877246;58;1149147;-75
2024/01/09 09:39:17;;;;;;;162.00;51.80;;;;;;;-10.67;100.00;103009.29;4896835;58;1147330;-77
2024/01/09 09:44:23;;;;;;;122.67;35.37;;;;;;;-10.61;100.00;103011.28;4853378;58;1149127;-74
2024/01/09 09:49:29;;;;;;;99.23;31.60;;;;;;;-10.54;100.00;103002.68;4858663;58;1149351;-75
2024/01/09 09:54:37;;;;;;;86.83;30.63;;;;;;;-10.41;100.00;102998.66;4873331;58;1147289;-73
2024/01/09 09:59:43;;;;;;;96.47;31.67;;;;;;;-10.26;100.00;102993.78;4861859;58;1146953;-76
2024/01/09 10:04:51;;;;;;;109.57;32.40;;;;;;;-10.17;100.00;102996.72;4887169;58;1147028;-74
2024/01/09 10:10:00;;;;;;;98.12;33.58;;;;;;;-10.05;100.00;102982.80;4897794;58;1149168;-75
2024/01/09 10:15:12;;;;;;;91.33;31.30;;;;;;;-9.89;100.00;102983.09;4926096;58;1154568;-74
2024/01/09 10:20:17;;;;;;;91.20;32.77;;;;;;;-9.73;100.00;102979.13;4896759;56;1145681;-77
2024/01/09 10:25:23;;;;;;;97.93;33.80;;;;;;;-9.64;100.00;102977.40;4946159;56;1145107;-75
2024/01/09 10:30:29;;;;;;;84.20;27.30;;;;;;;-9.52;100.00;102973.21;4928897;57;1144797;-77
2024/01/09 10:35:34;;;;;;;101.30;35.40;;;;;;;-9.39;100.00;102976.77;4913674;57;1144889;-75
2024/01/09 10:40:40;;;;;;;109.35;36.00;;;;;;;-9.33;100.00;102969.36;4941188;56;1148437;-77
2024/01/09 10:45:48;;;;;;;84.97;27.37;;;;;;;-9.20;100.00;102973.31;4824858;58;1147162;-77
2024/01/09 10:50:55;;;;;;;103.50;38.80;;;;;;;-9.07;100.00;102975.57;4887952;58;1144811;-77
2024/01/09 10:56:03;;;;;;;93.00;37.50;;;;;;;-8.93;100.00;102967.64;4838552;58;1147064;-76
2024/01/09 11:01:09;;;;;;;79.87;24.67;;;;;;;-8.79;100.00;102962.19;4887424;57;1144970;-78
2024/01/09 11:06:17;;;;;;;70.90;26.27;;;;;;;-8.67;100.00;102958.42;4904558;57;1145150;-76
2024/01/09 11:11:23;;;;;;;107.83;38.77;;;;;;;-8.51;100.00;102953.48;4966027;57;1144945;-76
2024/01/09 11:16:32;;;;;;;86.40;31.20;;;;;;;-8.35;100.00;102945.98;4945237;58;1147182;-75
2024/01/09 11:21:37;;;;;;;77.37;28.27;;;;;;;-8.18;100.00;102945.77;4887070;58;1142701;-77
2024/01/09 11:26:43;;;;;;;70.63;22.60;;;;;;;-8.04;100.00;102936.02;4844348;58;1142622;-75
2024/01/09 11:31:49;;;;;;;60.87;21.17;;;;;;;-7.85;100.00;102941.02;4849060;58;1144625;-76
2024/01/09 11:36:55;;;;;;;68.60;21.10;;;;;;;-7.72;100.00;102934.62;4794860;59;1145201;-78
2024/01/09 11:42:00;;;;;;;54.97;19.33;;;;;;;-7.58;100.00;102935.10;4833622;57;1142919;-76
2024/01/09 11:47:06;;;;;;;75.45;20.40;;;;;;;-7.39;100.00;102922.08;4951318;57;1143044;-78
2024/01/09 11:52:12;;;;;;;58.68;20.57;;;;;;;-7.17;100.00;102924.94;4941863;56;1142805;-77
2024/01/09 11:57:19;;;;;;;62.93;22.87;;;;;;;-6.90;100.00;102914.70;4984081;58;1143130;-77
2024/01/09 12:02:24;;;;;;;73.93;27.10;;;;;;;-6.59;100.00;102902.39;4976037;57;1143090;-77
2024/01/09 12:07:30;;;;;;;54.53;18.92;;;;;;;-6.06;100.00;102901.39;4945261;56;1142867;-79
2024/01/09 12:12:36;;;;;;;55.80;20.93;;;;;;;-5.59;100.00;102900.09;4984778;58;1142748;-78
2024/01/09 12:17:44;;;;;;;52.87;18.23;;;;;;;-5.02;100.00;102897.23;4904009;57;1142909;-77
2024/01/09 12:22:49;;;;;;;60.40;22.43;;;;;;;-4.51;100.00;102887.68;4946860;56;1142913;-76
2024/01/09 12:27:55;;;;;;;50.78;18.65;;;;;;;-4.11;100.00;102877.34;4954038;57;1143152;-79
2024/01/09 12:33:03;;;;;;;71.05;24.82;;;;;;;-3.86;100.00;102887.77;4977255;55;1146353;-76
2024/01/09 12:38:08;;;;;;;58.45;18.37;;;;;;;-3.55;100.00;102877.58;4949661;56;1142907;-78
2024/01/09 12:43:17;;;;;;;60.60;21.03;;;;;;;-3.24;100.00;102872.52;4979607;56;1143034;-77
2024/01/09 12:48:23;;;;;;;39.50;15.00;;;;;;;-3.05;100.00;102870.66;5006155;57;1143000;-75
2024/01/09 12:53:33;;;;;;;217.53;75.50;;;;;;;-2.74;100.00;102862.06;4956123;57;1143093;-76
2024/01/09 12:58:44;;;;;;;55.63;19.77;;;;;;;-2.49;100.00;102857.69;4928885;58;1144838;-77
2024/01/09 13:03:51;;;;;;;42.48;15.50;;;;;;;-2.25;100.00;102858.42;4934790;57;1142925;-77
2024/01/09 13:08:56;;;;;;;91.67;41.90;;;;;;;-1.85;100.00;102859.78;4942961;58;1142921;-77
2024/01/09 13:14:04;;;;;;;68.97;32.83;;;;;;;-1.60;99.75;102853.98;4919029;57;1143167;-78
2024/01/09 13:19:18;;;;;;;53.20;20.53;;;;;;;-1.41;99.67;102852.44;4878035;56;1140955;-76
2024/01/09 13:24:20;;;;;;;56.10;21.73;;;;;;;-1.11;97.71;102854.00;4890441;57;1141075;-77
2024/01/09 13:29:27;;;;;;;58.38;25.77;;;;;;;-0.87;95.99;102851.13;4825755;57;1140954;-79
2024/01/09 13:34:32;;;;;;;61.33;22.48;;;;;;;-0.70;97.03;102854.70;4915977;56;1140856;-76
2024/01/09 13:39:38;;;;;;;51.73;18.77;;;;;;;-1.00;92.85;102844.98;4996803;55;1141098;-79
2024/01/09 13:44:44;;;;;;;49.70;19.50;;;;;;;-1.86;91.52;102862.80;4970614;57;1141058;-77
2024/01/09 13:49:50;;;;;;;51.25;20.65;;;;;;;-2.24;91.80;102862.33;4972166;56;1140888;-75
2024/01/09 13:54:55;;;;;;;90.67;31.97;;;;;;;-2.95;92.30;102859.63;4965533;55;1140809;-78
2024/01/09 14:00:01;;;;;;;109.60;38.03;;;;;;;-3.56;92.31;102859.89;4992762;57;1140783;-78
2024/01/09 14:05:09;;;;;;;112.28;32.78;;;;;;;-4.03;94.03;102856.42;4905896;56;1143068;-77
2024/01/09 14:10:14;;;;;;;140.63;39.33;;;;;;;-4.15;94.68;102843.27;4930900;55;1143018;-77
2024/01/09 14:15:21;;;;;;;85.00;23.32;;;;;;;-4.31;94.43;102842.08;4983332;57;1143287;-78
2024/01/09 14:20:28;;;;;;;43.20;13.37;;;;;;;-4.49;93.47;102832.65;4931653;55;1140728;-75
2024/01/09 14:25:33;;;;;;;28.52;11.15;;;;;;;-4.68;92.59;102827.92;4908867;56;1140971;-76
2024/01/09 14:30:39;;;;;;;36.23;12.27;;;;;;;-4.88;92.44;102822.72;4931779;55;1140841;-76
2024/01/09 14:35:45;;;;;;;55.87;20.20;;;;;;;-5.04;93.48;102821.53;4903145;56;1140934;-76
2024/01/09 14:40:51;;;;;;;74.50;24.05;;;;;;;-5.13;94.78;102820.02;4895408;57;1141326;-75
2024/01/09 14:45:56;;;;;;;108.27;39.93;;;;;;;-5.20;95.96;102819.02;4971384;57;1141810;-75
2024/01/09 14:51:02;;;;;;;56.35;21.75;;;;;;;-5.26;96.64;102818.86;5002825;57;1142803;-77
2024/01/09 14:56:08;;;;;;;75.67;23.77;;;;;;;-5.32;100.00;102818.69;4985739;57;1140993;-75
2024/01/09 15:01:16;;;;;;;79.57;25.50;;;;;;;-5.32;100.00;102818.69;4918317;57;1142686;-75
2024/01/09 15:06:22;;;;;;;98.00;36.33;;;;;;;-5.42;100.00;102825.34;4893088;56;1143101;-76
2024/01/09 15:11:28;;;;;;;171.80;54.43;;;;;;;-5.36;100.00;102822.93;4888176;56;1142924;-77
2024/01/09 15:16:33;;;;;;;133.32;47.13;;;;;;;-5.33;100.00;102823.39;4919582;57;1144720;-79
2024/01/09 15:21:39;;;;;;;133.25;47.00;;;;;;;-5.48;100.00;102830.34;4919398;57;1144760;-76
2024/01/09 15:26:45;;;;;;;125.00;42.30;;;;;;;-5.51;100.00;102825.12;4903949;57;1145141;-75
2024/01/09 15:31:50;;;;;;;123.93;43.77;;;;;;;-5.56;100.00;102828.41;4890293;57;1144918;-76
2024/01/09 15:36:58;;;;;;;154.00;52.20;;;;;;;-5.60;100.00;102829.16;4915546;57;1144826;-76
2024/01/09 15:42:03;;;;;;;129.60;46.10;;;;;;;-5.60;100.00;102833.90;4931312;57;1145218;-76
2024/01/09 15:47:09;;;;;;;125.23;45.00;;;;;;;-5.64;100.00;102825.63;4959286;55;1145119;-77
2024/01/09 15:52:15;;;;;;;129.50;45.67;;;;;;;-5.87;100.00;102832.77;4907018;57;1145145;-75
2024/01/09 15:57:21;;;;;;;173.10;56.57;;;;;;;-6.06;100.00;102835.70;4939656;57;1265327;-75
2024/01/09 16:02:26;;;;;;;166.93;57.97;;;;;;;-6.25;100.00;102838.17;5052738;58;1144892;-77
2024/01/09 16:07:32;;;;;;;126.77;45.27;;;;;;;-6.32;100.00;102833.70;4982490;57;1144977;-75
2024/01/09 16:12:39;;;;;;;192.77;65.67;;;;;;;-6.36;100.00;102834.43;5039804;57;1144747;-74
2024/01/09 16:17:45;;;;;;;240.43;79.90;;;;;;;-6.47;100.00;102831.97;4860933;57;1144909;-76
2024/01/09 16:22:51;;;;;;;253.75;85.32;;;;;;;-6.54;100.00;102836.47;4965344;56;1145551;-76
2024/01/09 16:27:56;;;;;;;282.47;97.30;;;;;;;-6.57;100.00;102828.68;5080820;56;1145148;-76
2024/01/09 16:33:02;;;;;;;259.57;93.87;;;;;;;-6.66;100.00;102827.98;5013773;56;1145148;-76
2024/01/09 16:38:07;;;;;;;262.77;98.03;;;;;;;-6.73;100.00;102826.48;5033614;56;1145565;-74
2024/01/09 16:43:13;;;;;;;325.90;118.60;;;;;;;-6.75;100.00;102823.44;5017478;57;1145153;-73
2024/01/09 16:48:19;;;;;;;214.20;77.97;;;;;;;-6.85;100.00;102813.68;5020139;57;1146903;-75
2024/01/09 16:53:24;;;;;;;122.93;51.10;;;;;;;-6.91;100.00;102807.08;4895583;57;1145170;-77
2024/01/09 16:58:30;;;;;;;117.47;45.33;;;;;;;-7.01;100.00;102805.03;4950319;57;1144934;-78
2024/01/09 17:03:36;;;;;;;110.03;38.40;;;;;;;-7.04;100.00;102810.11;4912898;57;1144881;-75
2024/01/09 17:08:42;;;;;;;210.60;61.40;;;;;;;-7.00;100.00;102809.36;4926000;57;1144675;-77
2024/01/09 17:13:48;;;;;;;275.45;76.47;;;;;;;-7.00;100.00;102805.91;4961309;56;1145232;-77
2024/01/09 17:18:53;;;;;;;233.57;65.33;;;;;;;-7.03;100.00;102809.70;4956905;57;1145215;-77
2024/01/09 17:23:59;;;;;;;240.60;69.17;;;;;;;-7.06;100.00;102810.47;4864500;57;1145032;-76
2024/01/09 17:29:04;;;;;;;180.37;57.33;;;;;;;-7.07;100.00;102810.42;4878018;57;1145400;-74
2024/01/09 17:34:11;;;;;;;225.30;73.53;;;;;;;-7.19;100.00;102810.50;4996886;57;1145111;-77
2024/01/09 17:39:17;;;;;;;316.27;94.17;;;;;;;-7.23;100.00;102804.80;4943491;57;1145110;-76
2024/01/09 17:44:24;;;;;;;483.56;172.58;;;;;;;-7.40;100.00;102804.67;4998298;56;1144970;-77
2024/01/09 17:49:29;;;;;;;310.23;91.27;;;;;;;-7.60;100.00;102806.58;4975578;57;1147287;-79
2024/01/09 17:54:37;;;;;;;350.97;117.03;;;;;;;-7.74;100.00;102795.38;4997091;57;1146811;-77
2024/01/09 17:59:44;;;;;;;522.63;209.07;;;;;;;-7.79;100.00;102796.94;4983653;57;1149439;-77
2024/01/09 18:04:50;;;;;;;569.87;182.47;;;;;;;-7.73;100.00;102796.72;4982463;57;1149180;-80
2024/01/09 18:09:56;;;;;;;338.20;93.53;;;;;;;-7.76;100.00;102795.73;4990521;57;1149272;-76
2024/01/09 18:15:02;;;;;;;436.97;149.57;;;;;;;-7.78;100.00;102808.52;4970124;57;1147055;-75
2024/01/09 18:20:09;;;;;;;593.90;255.77;;;;;;;-7.82;100.00;102805.00;4962808;55;1149292;-77
2024/01/09 18:25:15;;;;;;;706.37;324.50;;;;;;;-8.13;100.00;102809.89;4990444;57;1149202;-77
2024/01/09 18:30:21;;;;;;;434.67;162.37;;;;;;;-8.30;100.00;102812.27;4947429;57;1147103;-77
2024/01/09 18:35:27;;;;;;;326.23;102.77;;;;;;;-8.29;100.00;102808.48;4982323;57;1147247;-76
2024/01/09 18:40:33;;;;;;;476.50;157.07;;;;;;;-8.22;100.00;102805.70;4983791;56;1147303;-76
2024/01/09 18:45:38;;;;;;;571.97;191.97;;;;;;;-8.07;100.00;102801.11;4976953;56;1147118;-76
2024/01/09 18:50:47;;;;;;;565.93;189.20;;;;;;;-7.93;100.00;102797.31;4959535;57;1146857;-77
2024/01/09 18:55:53;;;;;;;435.87;137.75;;;;;;;-7.77;100.00;102800.41;5085017;56;1147165;-76
2024/01/09 19:00:59;;;;;;;286.80;92.60;;;;;;;-7.67;100.00;102803.77;5110291;56;1147144;-76
2024/01/09 19:06:06;;;;;;;257.50;85.33;;;;;;;-7.69;100.00;102808.85;4999380;56;1144890;-73
2024/01/09 19:11:13;;;;;;;241.53;78.90;;;;;;;-7.70;100.00;102810.95;5031535;55;1145219;-77
2024/01/09 19:16:19;;;;;;;242.03;76.30;;;;;;;-7.66;100.00;102810.66;5019513;56;1145109;-76
2024/01/09 19:21:26;;;;;;;230.65;76.42;;;;;;;-7.69;100.00;102811.83;5013360;55;1145192;-77
2024/01/09 19:26:34;;;;;;;315.63;101.43;;;;;;;-7.75;100.00;102807.76;4919529;57;1145086;-77
2024/01/09 19:31:46;;;;;;;256.63;83.87;;;;;;;-7.95;100.00;102804.53;4829952;59;1147343;-75
2024/01/09 19:36:52;;;;;;;232.30;78.40;;;;;;;-8.06;100.00;102794.28;5000301;56;1144984;-76
2024/01/09 19:41:58;;;;;;;260.70;80.97;;;;;;;-8.19;100.00;102801.56;4989644;56;1145000;-77
2024/01/09 19:47:04;;;;;;;243.83;77.10;;;;;;;-8.19;100.00;102801.56;5041755;55;1145234;-80
2024/01/09 19:52:10;;;;;;;320.00;97.30;;;;;;;-8.14;100.00;102793.16;4944083;56;1144989;-78
2024/01/09 19:57:20;;;;;;;394.57;132.70;;;;;;;-8.10;100.00;102797.58;5002808;55;1145261;-75
2024/01/09 20:02:26;;;;;;;414.82;136.72;;;;;;;-8.06;100.00;102784.02;5067785;55;1147320;-77
2024/01/09 20:07:32;;;;;;;415.37;138.43;;;;;;;-8.21;100.00;102782.66;5046304;55;1148750;-76
2024/01/09 20:12:45;;;;;;;421.18;146.60;;;;;;;-8.36;100.00;102774.45;4968870;57;1147189;-74
2024/01/09 20:17:47;;;;;;;447.10;149.77;;;;;;;-8.48;100.00;102771.45;4941476;56;1147196;-75
2024/01/09 20:22:52;;;;;;;501.37;178.47;;;;;;;-8.69;100.00;102774.50;4923542;57;1147307;-78
2024/01/09 20:27:58;;;;;;;453.88;145.62;;;;;;;-8.74;100.00;102782.46;4973420;57;1147022;-77
2024/01/09 20:33:03;;;;;;;510.10;187.63;;;;;;;-8.66;100.00;102778.47;4969278;57;1147281;-77
2024/01/09 20:38:09;;;;;;;635.02;220.73;;;;;;;-8.67;100.00;102774.16;4947916;57;1147253;-78
2024/01/09 20:43:15;;;;;;;579.77;194.43;;;;;;;-8.97;100.00;102777.33;4856360;57;1147325;-77
2024/01/09 20:48:21;;;;;;;303.73;95.53;;;;;;;-9.28;100.00;102771.83;4923283;57;1147018;-78
2024/01/09 20:53:27;;;;;;;264.60;92.40;;;;;;;-9.51;100.00;102779.90;4962111;57;1147336;-77
2024/01/09 20:58:33;;;;;;;401.22;141.88;;;;;;;-9.41;100.00;102779.84;4932972;56;1146910;-78
2024/01/09 21:03:39;;;;;;;421.37;136.00;;;;;;;-9.42;100.00;102771.70;4934950;57;1149205;-77
2024/01/09 21:08:45;;;;;;;397.13;131.20;;;;;;;-9.37;100.00;102763.39;4981874;57;1149174;-78
2024/01/09 21:13:50;;;;;;;320.23;106.67;;;;;;;-9.40;100.00;102781.20;4926688;57;1149241;-77
2024/01/09 21:18:56;;;;;;;301.27;97.67;;;;;;;-9.47;100.00;102786.03;4957134;55;1149067;-76
2024/01/09 21:24:02;;;;;;;282.10;98.35;;;;;;;-9.43;100.00;102790.44;5024729;56;1147536;-77
2024/01/09 21:29:07;;;;;;;313.30;105.90;;;;;;;-9.51;100.00;102790.14;4942347;57;1147305;-77
2024/01/09 21:34:15;;;;;;;256.67;86.80;;;;;;;-9.37;100.00;102780.45;4946747;58;1148904;-77
2024/01/09 21:39:20;;;;;;;259.77;83.43;;;;;;;-9.25;100.00;102777.08;4946529;57;1145172;-77
2024/01/09 21:44:26;;;;;;;306.23;95.33;;;;;;;-9.17;100.00;102767.14;4909813;57;1145037;-77
2024/01/09 21:49:32;;;;;;;308.17;100.70;;;;;;;-9.30;100.00;102767.05;4939783;56;1147012;-78
2024/01/09 21:54:40;;;;;;;405.33;129.70;;;;;;;-9.40;100.00;102768.38;4999198;57;1149372;-78
2024/01/09 21:59:46;;;;;;;387.80;118.73;;;;;;;-9.42;100.00;102779.37;4945782;55;1149949;-78
2024/01/09 22:04:51;;;;;;;402.10;115.43;;;;;;;-9.36;100.00;102769.39;4916521;56;1149058;-78